Time;durP1;ratioP1;P1;durP2;ratioP2;P2;SDS_P1;SDS_P2;PMS_P1;PMS_P2;Temp;Humidity;BMP_temperature;BMP_pressure;BME280_temperature;BME280_humidity;BME280_pressure;Samples;Min_cycle;Max_cycle;Signal;HPM_P1;HPM_P2
2023/09/13 00:02:24;;;;;;;36.93;32.90;;;20.60;99.90;;;;;;5030844;28;20493;-72
2023/09/13 00:04:52;;;;;;;44.63;37.70;;;20.60;99.90;;;;;;5029817;28;20466;-74
2023/09/13 00:07:19;;;;;;;41.07;36.47;;;20.60;99.90;;;;;;5033574;28;20460;-69
2023/09/13 00:09:46;;;;;;;38.27;31.63;;;20.50;99.90;;;;;;5029538;28;20466;-71
2023/09/13 00:12:13;;;;;;;45.83;36.33;;;20.50;99.90;;;;;;5033731;28;21017;-72
2023/09/13 00:14:41;;;;;;;41.37;34.87;;;20.40;99.90;;;;;;5025044;28;20477;-70
2023/09/13 00:17:08;;;;;;;38.50;34.33;;;20.40;99.90;;;;;;5033292;28;20478;-70
2023/09/13 00:19:37;;;;;;;41.57;33.37;;;20.40;99.90;;;;;;5032904;28;21102;-70
2023/09/13 00:22:05;;;;;;;42.33;32.90;;;20.40;99.90;;;;;;5033869;28;20524;-71
2023/09/13 00:24:31;;;;;;;50.87;38.03;;;20.40;99.90;;;;;;5033495;28;20454;-72
2023/09/13 00:26:58;;;;;;;37.37;33.43;;;20.30;99.90;;;;;;5032711;28;20542;-71
2023/09/13 00:29:25;;;;;;;36.53;32.27;;;20.30;99.90;;;;;;5032774;28;20533;-69
2023/09/13 00:31:54;;;;;;;39.23;32.43;;;20.30;99.90;;;;;;5033556;28;20595;-70
2023/09/13 00:34:20;;;;;;;39.40;35.10;;;20.20;99.90;;;;;;5034010;28;20793;-69
2023/09/13 00:36:48;;;;;;;46.37;35.37;;;20.20;99.90;;;;;;5032505;28;20504;-70
2023/09/13 00:39:15;;;;;;;46.20;36.70;;;20.20;99.90;;;;;;5033102;28;20540;-70
2023/09/13 00:41:42;;;;;;;43.37;34.13;;;20.10;99.90;;;;;;5033263;28;20881;-72
2023/09/13 00:44:08;;;;;;;48.67;38.77;;;20.10;99.90;;;;;;5033409;28;20485;-72
2023/09/13 00:46:36;;;;;;;46.20;35.90;;;20.10;99.90;;;;;;5024649;28;21034;-72
2023/09/13 00:49:05;;;;;;;49.60;38.60;;;20.00;99.90;;;;;;5024720;28;20521;-69
2023/09/13 00:51:32;;;;;;;36.40;31.17;;;20.00;99.90;;;;;;5038299;28;20533;-71
2023/09/13 00:54:01;;;;;;;32.73;29.20;;;20.00;99.90;;;;;;5021826;28;20478;-71
2023/09/13 00:56:28;;;;;;;43.90;34.97;;;20.00;99.90;;;;;;5027095;28;20513;-72
2023/09/13 00:58:55;;;;;;;47.60;35.30;;;20.00;99.90;;;;;;5031013;28;20528;-72
2023/09/13 01:01:27;;;;;;;47.90;38.93;;;20.00;99.90;;;;;;5026675;28;20514;-73
2023/09/13 01:04:13;;;;;;;46.00;36.70;;;20.00;99.90;;;;;;5032004;28;20445;-67
2023/09/13 01:06:41;;;;;;;39.50;34.13;;;19.90;99.90;;;;;;5026922;28;20538;-70
2023/09/13 01:09:08;;;;;;;48.93;39.07;;;19.90;99.90;;;;;;5031186;28;20500;-69
2023/09/13 01:11:35;;;;;;;43.23;35.70;;;19.90;99.90;;;;;;5026274;28;20439;-70
2023/09/13 01:14:02;;;;;;;46.57;34.80;;;19.90;99.90;;;;;;5029072;28;20470;-70
2023/09/13 01:16:37;;;;;;;40.93;33.90;;;19.90;99.90;;;;;;5032007;28;20463;-67
2023/09/13 01:19:20;;;;;;;47.60;37.57;;;19.90;99.90;;;;;;5024406;28;20447;-70
2023/09/13 01:22:04;;;;;;;56.60;42.40;;;19.90;99.90;;;;;;5012030;28;20501;-71
2023/09/13 01:25:02;;;;;;;48.10;38.37;;;19.90;99.90;;;;;;5007138;28;20445;-69
2023/09/13 01:27:49;;;;;;;56.80;41.90;;;19.90;99.90;;;;;;5014621;28;20529;-71
2023/09/13 01:30:18;;;;;;;51.63;39.07;;;19.90;99.90;;;;;;5010710;28;20442;-71
2023/09/13 01:32:46;;;;;;;68.37;46.90;;;19.90;99.90;;;;;;5031466;28;20594;-70
2023/09/13 01:35:12;;;;;;;54.37;41.90;;;19.90;99.90;;;;;;5024676;28;20536;-71
2023/09/13 01:37:40;;;;;;;51.60;39.97;;;19.80;99.90;;;;;;5028090;28;20466;-71
2023/09/13 01:40:09;;;;;;;58.63;44.63;;;19.80;99.90;;;;;;5026407;28;20435;-72
2023/09/13 01:42:39;;;;;;;70.37;50.40;;;19.80;99.90;;;;;;5026269;28;20450;-71
2023/09/13 01:45:09;;;;;;;73.27;47.60;;;19.80;99.90;;;;;;5023661;28;20454;-70
2023/09/13 01:47:39;;;;;;;56.50;43.67;;;19.80;99.90;;;;;;5025997;28;20480;-72
2023/09/13 01:50:07;;;;;;;51.43;43.60;;;19.80;99.90;;;;;;5024801;28;20613;-71
2023/09/13 01:52:35;;;;;;;54.27;41.77;;;19.80;99.90;;;;;;5022773;28;20537;-70
2023/09/13 01:55:06;;;;;;;56.90;43.33;;;19.80;99.90;;;;;;5030900;28;20526;-73
2023/09/13 01:57:33;;;;;;;62.40;47.40;;;19.80;99.90;;;;;;5024044;28;20961;-70
2023/09/13 02:00:00;;;;;;;63.63;47.37;;;19.70;99.90;;;;;;5032052;28;20441;-69
2023/09/13 02:02:27;;;;;;;66.03;45.53;;;19.70;99.90;;;;;;5023248;28;20460;-72
2023/09/13 02:04:55;;;;;;;55.30;42.67;;;19.70;99.90;;;;;;5038124;28;20471;-68
2023/09/13 02:07:22;;;;;;;52.00;42.17;;;19.70;99.90;;;;;;5029669;28;20463;-70
2023/09/13 02:09:49;;;;;;;56.87;42.67;;;19.60;99.90;;;;;;5025695;28;20868;-73
2023/09/13 02:12:16;;;;;;;51.87;41.70;;;19.60;99.90;;;;;;5029977;28;20599;-72
2023/09/13 02:14:50;;;;;;;49.43;38.27;;;19.60;99.90;;;;;;5021916;28;20454;-68
2023/09/13 02:17:18;;;;;;;53.43;41.13;;;19.60;99.90;;;;;;5027479;28;20495;-69
2023/09/13 02:19:48;;;;;;;57.37;40.70;;;19.60;99.90;;;;;;5028391;28;20447;-68
2023/09/13 02:22:16;;;;;;;62.53;42.53;;;19.60;99.90;;;;;;5020578;28;20435;-69
2023/09/13 02:24:44;;;;;;;40.10;34.57;;;19.60;99.90;;;;;;5022832;28;21024;-70
2023/09/13 02:27:10;;;;;;;42.40;36.10;;;19.60;99.90;;;;;;5031794;28;20486;-69
2023/09/13 02:29:38;;;;;;;45.50;35.97;;;19.60;99.90;;;;;;5035320;28;20546;-69
2023/09/13 02:32:05;;;;;;;46.40;38.60;;;19.60;99.90;;;;;;5033604;28;20693;-69
2023/09/13 02:34:32;;;;;;;47.47;37.20;;;19.60;99.90;;;;;;5031135;28;20840;-71
2023/09/13 02:36:59;;;;;;;49.30;37.50;;;19.60;99.90;;;;;;5035539;28;20566;-68
2023/09/13 02:39:36;;;;;;;53.20;39.30;;;19.60;99.90;;;;;;5035534;28;20463;-71
2023/09/13 02:42:05;;;;;;;50.10;36.63;;;19.60;99.90;;;;;;5034946;28;20431;-70
2023/09/13 02:44:32;;;;;;;43.10;35.67;;;19.60;99.90;;;;;;5035485;28;20474;-69
2023/09/13 02:46:59;;;;;;;52.43;39.50;;;19.60;99.90;;;;;;5034696;28;20466;-70
2023/09/13 02:49:26;;;;;;;50.77;37.57;;;19.60;99.90;;;;;;5029529;28;20435;-71
2023/09/13 02:51:54;;;;;;;43.10;35.00;;;19.50;99.90;;;;;;5030467;28;20454;-72
2023/09/13 02:54:21;;;;;;;48.73;37.07;;;19.50;99.90;;;;;;5035600;28;20486;-68
2023/09/13 02:56:50;;;;;;;47.47;36.13;;;19.50;99.90;;;;;;5039152;28;20501;-68
2023/09/13 02:59:17;;;;;;;38.07;28.67;;;19.50;99.90;;;;;;5037274;28;20465;-69
2023/09/13 03:01:44;;;;;;;43.67;31.63;;;19.50;99.90;;;;;;5044023;28;20462;-67
2023/09/13 03:04:12;;;;;;;47.17;33.33;;;19.50;99.90;;;;;;5037008;28;20502;-68
2023/09/13 03:06:40;;;;;;;51.37;33.27;;;19.50;99.90;;;;;;5049398;28;20463;-71
2023/09/13 03:09:06;;;;;;;44.57;33.23;;;19.40;99.90;;;;;;5040442;28;20442;-70
2023/09/13 03:11:36;;;;;;;45.93;33.23;;;19.40;99.90;;;;;;5033232;28;20482;-70
2023/09/13 03:14:05;;;;;;;47.90;33.40;;;19.40;99.90;;;;;;5034272;28;20478;-70
2023/09/13 03:16:32;;;;;;;72.60;40.17;;;19.40;99.90;;;;;;5034599;28;20557;-72
2023/09/13 03:18:59;;;;;;;39.57;30.43;;;19.40;99.90;;;;;;5033703;28;20451;-70
2023/09/13 03:21:27;;;;;;;41.23;29.37;;;19.40;99.90;;;;;;5034949;28;20569;-69
2023/09/13 03:23:55;;;;;;;53.30;35.63;;;19.40;99.90;;;;;;5028999;28;20447;-70
2023/09/13 03:26:23;;;;;;;45.67;32.33;;;19.40;99.90;;;;;;5016909;28;20499;-72
2023/09/13 03:28:52;;;;;;;45.00;32.23;;;19.40;99.90;;;;;;5034212;28;20454;-70
2023/09/13 03:31:23;;;;;;;56.07;37.80;;;19.40;99.90;;;;;;5033664;28;20530;-71
2023/09/13 03:33:51;;;;;;;67.20;42.57;;;19.40;99.90;;;;;;5026504;28;20578;-71
2023/09/13 03:36:18;;;;;;;75.90;48.90;;;19.40;99.90;;;;;;5034114;28;20893;-69
2023/09/13 03:38:47;;;;;;;82.27;49.07;;;19.40;99.90;;;;;;5021389;28;20494;-69
2023/09/13 03:41:18;;;;;;;85.50;53.57;;;19.40;99.90;;;;;;5032385;28;20450;-72
2023/09/13 03:43:45;;;;;;;84.00;51.23;;;19.50;99.90;;;;;;5034346;28;20518;-69
2023/09/13 03:46:12;;;;;;;77.93;48.57;;;19.50;99.90;;;;;;5026270;28;20467;-69
2023/09/13 03:48:40;;;;;;;78.33;49.73;;;19.50;99.90;;;;;;5023414;28;20482;-71
2023/09/13 03:51:08;;;;;;;62.73;40.00;;;19.50;99.90;;;;;;5028313;28;20518;-70
2023/09/13 03:53:35;;;;;;;51.20;32.40;;;19.50;99.90;;;;;;5022584;28;20475;-70
2023/09/13 03:56:04;;;;;;;37.00;26.10;;;19.40;99.90;;;;;;5027777;28;20842;-69
2023/09/13 03:58:31;;;;;;;33.60;22.97;;;19.30;99.90;;;;;;5028917;28;20530;-70
2023/09/13 04:00:58;;;;;;;22.17;18.07;;;19.30;99.90;;;;;;5024299;28;20471;-71
2023/09/13 04:03:26;;;;;;;19.13;13.57;;;19.30;99.90;;;;;;5033554;28;20439;-70
2023/09/13 04:05:55;;;;;;;17.47;13.17;;;19.20;99.90;;;;;;5033954;28;20550;-70
2023/09/13 04:08:22;;;;;;;16.57;12.60;;;19.10;99.90;;;;;;5025820;28;20479;-71
2023/09/13 04:10:49;;;;;;;19.83;13.97;;;19.10;99.90;;;;;;5034542;28;20545;-72
2023/09/13 04:13:16;;;;;;;12.73;9.10;;;19.00;99.90;;;;;;5022541;28;21102;-73
2023/09/13 04:15:44;;;;;;;13.63;10.57;;;19.00;99.90;;;;;;5022614;28;20499;-71
2023/09/13 04:18:11;;;;;;;13.17;9.97;;;19.00;99.90;;;;;;5018966;28;20490;-72
2023/09/13 04:20:38;;;;;;;16.40;11.10;;;19.00;99.90;;;;;;5023426;28;20773;-71
2023/09/13 04:23:06;;;;;;;12.57;9.87;;;19.00;99.90;;;;;;5027605;28;20447;-69
2023/09/13 04:25:34;;;;;;;10.10;8.63;;;18.90;99.90;;;;;;5032630;28;20549;-70
2023/09/13 04:28:01;;;;;;;10.93;7.80;;;19.00;99.90;;;;;;5020953;28;20454;-71
2023/09/13 04:30:27;;;;;;;6.70;6.10;;;18.90;99.90;;;;;;5029746;28;20804;-73
2023/09/13 04:32:54;;;;;;;8.40;6.60;;;18.90;99.90;;;;;;5024452;28;20565;-70
2023/09/13 04:35:21;;;;;;;8.70;7.03;;;18.80;99.90;;;;;;5024045;28;20440;-70
2023/09/13 04:37:48;;;;;;;8.63;7.73;;;18.70;99.90;;;;;;5032507;28;20443;-71
2023/09/13 04:40:16;;;;;;;17.27;8.00;;;18.70;99.90;;;;;;5027186;28;20448;-72
2023/09/13 04:42:51;;;;;;;15.37;7.67;;;18.70;99.90;;;;;;5024264;28;20948;-73
2023/09/13 04:45:19;;;;;;;15.50;7.70;;;18.70;99.90;;;;;;5025141;28;20547;-71
2023/09/13 04:47:46;;;;;;;15.30;7.90;;;18.70;99.90;;;;;;5033856;28;20955;-73
2023/09/13 04:50:13;;;;;;;14.30;7.23;;;18.70;99.90;;;;;;5029283;28;20470;-70
2023/09/13 04:52:40;;;;;;;14.20;7.80;;;18.70;99.90;;;;;;5031152;28;20449;-69
2023/09/13 04:55:07;;;;;;;9.53;6.77;;;18.60;99.90;;;;;;5032786;28;20457;-73
2023/09/13 04:57:37;;;;;;;11.73;7.50;;;18.60;99.90;;;;;;5029223;28;20467;-70
2023/09/13 05:00:07;;;;;;;9.27;6.70;;;18.60;99.90;;;;;;5031472;28;20473;-70
2023/09/13 05:02:34;;;;;;;7.10;6.40;;;18.50;99.90;;;;;;5029431;28;20443;-72
2023/09/13 05:05:01;;;;;;;10.37;7.17;;;18.50;99.90;;;;;;5025647;28;20450;-71
2023/09/13 05:07:29;;;;;;;11.90;8.03;;;18.50;99.90;;;;;;5023331;28;20637;-72
2023/09/13 05:09:56;;;;;;;12.47;8.67;;;18.40;99.90;;;;;;5023543;28;20438;-71
2023/09/13 05:12:23;;;;;;;10.10;8.10;;;18.40;99.90;;;;;;5018772;28;20510;-71
2023/09/13 05:14:51;;;;;;;15.57;9.90;;;18.30;99.90;;;;;;5030231;28;20493;-73
2023/09/13 05:17:20;;;;;;;10.70;9.60;;;18.30;99.90;;;;;;5020818;28;20537;-72
2023/09/13 05:19:47;;;;;;;14.33;10.70;;;18.30;99.90;;;;;;5028266;28;20498;-72
2023/09/13 05:22:14;;;;;;;11.70;9.27;;;18.30;99.90;;;;;;5027658;28;20556;-72
2023/09/13 05:24:41;;;;;;;12.60;10.33;;;18.20;99.90;;;;;;5020822;28;20530;-71
2023/09/13 05:27:08;;;;;;;11.23;10.13;;;18.10;99.90;;;;;;5024329;28;20541;-72
2023/09/13 05:29:35;;;;;;;12.53;10.83;;;18.10;99.90;;;;;;5027196;28;20446;-72
2023/09/13 05:32:05;;;;;;;12.43;9.30;;;18.00;99.90;;;;;;5021180;28;20446;-73
2023/09/13 05:34:32;;;;;;;15.20;10.70;;;17.90;99.90;;;;;;5032604;28;20526;-73
2023/09/13 05:36:59;;;;;;;13.07;11.13;;;18.00;99.90;;;;;;5025599;28;20558;-72
2023/09/13 05:39:26;;;;;;;12.80;9.73;;;17.90;99.90;;;;;;5025600;28;20543;-74
2023/09/13 05:41:54;;;;;;;12.43;9.50;;;17.80;99.90;;;;;;5022713;28;20491;-71
2023/09/13 05:44:22;;;;;;;11.63;8.93;;;17.80;99.90;;;;;;5027411;28;20447;-72
2023/09/13 05:46:49;;;;;;;18.67;11.77;;;17.70;99.90;;;;;;5023711;28;20478;-73
2023/09/13 05:49:18;;;;;;;10.73;8.83;;;17.70;99.90;;;;;;5024403;28;20443;-75
2023/09/13 05:51:45;;;;;;;13.07;9.10;;;17.60;99.90;;;;;;5027226;28;20444;-73
2023/09/13 05:54:13;;;;;;;10.00;8.40;;;17.70;99.90;;;;;;5020775;28;20573;-73
2023/09/13 05:56:40;;;;;;;9.30;7.90;;;17.60;99.90;;;;;;5027987;28;20536;-73
2023/09/13 05:59:07;;;;;;;9.13;8.13;;;17.60;99.90;;;;;;5034922;28;20491;-71
2023/09/13 06:01:34;;;;;;;9.30;7.77;;;17.60;99.90;;;;;;5045711;28;20481;-70
2023/09/13 06:04:01;;;;;;;9.30;7.60;;;17.60;99.90;;;;;;5051609;28;20473;-70
2023/09/13 06:06:30;;;;;;;9.07;8.17;;;17.60;99.90;;;;;;5051966;28;20556;-73
2023/09/13 06:08:57;;;;;;;10.20;8.23;;;17.60;99.90;;;;;;5047847;28;20518;-73
2023/09/13 06:11:25;;;;;;;14.63;8.03;;;17.60;99.90;;;;;;5038527;28;20946;-72
2023/09/13 06:13:53;;;;;;;14.30;8.90;;;17.50;99.90;;;;;;5036483;28;20486;-70
2023/09/13 06:16:20;;;;;;;10.53;8.73;;;17.60;99.90;;;;;;5021740;28;20976;-72
2023/09/13 06:18:47;;;;;;;12.13;8.10;;;17.60;99.90;;;;;;5030913;28;20451;-71
2023/09/13 06:21:14;;;;;;;10.07;8.17;;;17.60;99.90;;;;;;5036620;28;20489;-72
2023/09/13 06:23:42;;;;;;;9.50;7.57;;;17.60;99.90;;;;;;5036029;28;20450;-72
2023/09/13 06:26:09;;;;;;;12.93;8.90;;;17.60;99.90;;;;;;5035847;28;20511;-73
2023/09/13 06:28:39;;;;;;;11.07;8.83;;;17.60;99.90;;;;;;5036837;28;20469;-72
2023/09/13 06:31:06;;;;;;;12.23;8.20;;;17.60;99.90;;;;;;5033793;28;20453;-71
2023/09/13 06:33:33;;;;;;;9.80;8.50;;;17.60;99.90;;;;;;5032296;28;20517;-72
2023/09/13 06:36:00;;;;;;;15.90;10.30;;;17.60;99.90;;;;;;5036386;28;21430;-73
2023/09/13 06:38:29;;;;;;;16.03;9.23;;;17.60;99.90;;;;;;5036343;28;20533;-72
2023/09/13 06:40:57;;;;;;;12.23;9.87;;;17.70;99.90;;;;;;5032026;28;20519;-73
2023/09/13 06:43:25;;;;;;;12.47;7.87;;;17.60;99.90;;;;;;5028204;28;20470;-74
2023/09/13 06:45:52;;;;;;;13.73;9.10;;;17.50;99.90;;;;;;5032411;28;20471;-74
2023/09/13 06:48:19;;;;;;;7.97;5.95;;;17.40;99.90;;;;;;5035930;28;20518;-73
2023/09/13 06:50:46;;;;;;;10.50;5.40;;;17.30;99.90;;;;;;5034100;28;20652;-71
2023/09/13 06:53:13;;;;;;;8.68;5.60;;;17.20;99.90;;;;;;5036500;28;20207;-75
2023/09/13 06:55:40;;;;;;;13.40;5.37;;;17.10;99.90;;;;;;5034650;28;20271;-70
2023/09/13 06:58:08;;;;;;;9.90;4.43;;;17.00;99.90;;;;;;5034600;28;20524;-71
2023/09/13 07:00:36;;;;;;;11.63;5.53;;;17.00;99.90;;;;;;5029437;28;20528;-75
2023/09/13 07:03:04;;;;;;;9.97;4.67;;;16.90;99.90;;;;;;5023220;28;20497;-72
2023/09/13 07:05:32;;;;;;;14.17;5.80;;;16.80;99.90;;;;;;5034691;28;20430;-75
2023/09/13 07:08:00;;;;;;;13.77;5.50;;;16.80;99.90;;;;;;5028684;28;20537;-74
2023/09/13 07:10:29;;;;;;;14.77;5.35;;;16.80;99.90;;;;;;5034191;28;20457;-72
2023/09/13 07:12:57;;;;;;;13.25;5.47;;;16.80;99.90;;;;;;5034072;28;20701;-73
2023/09/13 07:15:27;;;;;;;11.93;4.90;;;16.80;99.90;;;;;;5032501;28;20244;-74
2023/09/13 07:17:54;;;;;;;11.67;5.33;;;16.90;99.90;;;;;;5033443;28;20454;-70
2023/09/13 07:20:21;;;;;;;12.32;5.80;;;16.90;99.90;;;;;;5032902;28;20454;-74
2023/09/13 07:22:48;;;;;;;11.60;5.10;;;17.00;99.90;;;;;;5034157;28;20651;-72
2023/09/13 07:25:16;;;;;;;12.77;6.10;;;16.90;99.90;;;;;;5035293;28;20460;-71
2023/09/13 07:27:43;;;;;;;8.67;4.23;;;16.90;99.90;;;;;;5024788;28;20237;-73
2023/09/13 07:30:12;;;;;;;8.00;3.67;;;16.80;99.90;;;;;;5033363;28;20473;-72
2023/09/13 07:32:40;;;;;;;9.93;3.42;;;16.90;99.90;;;;;;5033993;28;20218;-75
2023/09/13 07:35:07;;;;;;;7.37;2.60;;;16.80;99.90;;;;;;5027989;28;20707;-76
2023/09/13 07:37:34;;;;;;;5.18;2.70;;;16.70;99.90;;;;;;5033232;28;20503;-71
2023/09/13 07:40:04;;;;;;;11.73;3.55;;;16.70;99.90;;;;;;5032679;28;20662;-72
2023/09/13 07:42:31;;;;;;;10.60;3.00;;;16.60;99.90;;;;;;5025180;28;20287;-71
2023/09/13 07:44:59;;;;;;;9.80;2.90;;;16.60;99.90;;;;;;5028256;28;20673;-73
2023/09/13 07:47:27;;;;;;;6.45;3.08;;;16.60;99.90;;;;;;5037147;28;20322;-71
2023/09/13 07:49:56;;;;;;;8.20;3.10;;;16.60;99.90;;;;;;5025680;28;20297;-72
2023/09/13 07:52:23;;;;;;;6.93;3.08;;;16.50;99.90;;;;;;5033972;28;20449;-71
2023/09/13 07:54:52;;;;;;;11.27;2.75;;;16.60;99.90;;;;;;5038676;28;20248;-72
2023/09/13 07:57:19;;;;;;;6.30;2.92;;;16.50;99.90;;;;;;5033824;28;20233;-70
2023/09/13 07:59:46;;;;;;;3.60;2.60;;;16.50;99.90;;;;;;5033107;28;20205;-73
2023/09/13 08:02:13;;;;;;;6.32;2.47;;;16.50;99.90;;;;;;5034144;28;20257;-71
2023/09/13 08:04:41;;;;;;;8.02;3.22;;;16.50;99.90;;;;;;5028675;28;20193;-70
2023/09/13 08:07:10;;;;;;;6.28;3.50;;;16.40;99.90;;;;;;5029698;28;20232;-69
2023/09/13 08:09:37;;;;;;;12.98;5.82;;;16.50;99.90;;;;;;5028941;28;20213;-72
2023/09/13 08:12:05;;;;;;;9.40;4.88;;;16.50;99.90;;;;;;5031156;28;20294;-69
2023/09/13 08:14:34;;;;;;;8.50;3.72;;;16.60;99.90;;;;;;5028237;28;20686;-70
2023/09/13 08:17:00;;;;;;;7.68;4.47;;;16.60;99.90;;;;;;5033900;28;20704;-69
2023/09/13 08:19:29;;;;;;;16.95;4.97;;;16.80;99.90;;;;;;5033750;28;20208;-70
2023/09/13 08:21:56;;;;;;;10.52;3.90;;;17.00;99.90;;;;;;5033673;28;20299;-72
2023/09/13 08:24:25;;;;;;;17.63;5.30;;;17.10;99.90;;;;;;5039358;28;20199;-72
2023/09/13 08:26:51;;;;;;;11.03;4.17;;;17.10;99.90;;;;;;5033457;28;21042;-73
2023/09/13 08:29:18;;;;;;;8.63;4.10;;;17.20;99.90;;;;;;5033328;28;20835;-72
2023/09/13 08:31:45;;;;;;;8.00;2.78;;;17.30;99.90;;;;;;5032831;28;20469;-71
2023/09/13 08:34:12;;;;;;;8.85;3.90;;;17.30;99.90;;;;;;5033053;28;20256;-72
2023/09/13 08:36:40;;;;;;;7.68;3.90;;;17.30;99.90;;;;;;5034557;28;20270;-72
2023/09/13 08:39:07;;;;;;;6.33;2.23;;;17.40;99.90;;;;;;5036327;28;20209;-71
2023/09/13 08:41:35;;;;;;;5.10;2.40;;;17.40;99.90;;;;;;5038982;28;20444;-71
2023/09/13 08:44:06;;;;;;;3.60;1.93;;;17.40;99.90;;;;;;5035648;28;20453;-71
2023/09/13 08:46:33;;;;;;;5.90;2.37;;;17.30;99.90;;;;;;5038545;28;20518;-70
2023/09/13 08:49:05;;;;;;;5.33;2.47;;;17.30;99.90;;;;;;5030921;28;20444;-73
2023/09/13 08:51:33;;;;;;;6.30;2.27;;;17.20;99.90;;;;;;5021842;28;20441;-71
2023/09/13 08:54:02;;;;;;;5.30;2.33;;;17.20;99.90;;;;;;5031964;28;20438;-75
2023/09/13 08:56:31;;;;;;;4.23;2.53;;;17.30;99.90;;;;;;5033372;28;21331;-72
2023/09/13 08:59:01;;;;;;;6.37;4.50;;;17.20;99.90;;;;;;5036409;28;20478;-73
2023/09/13 09:01:29;;;;;;;13.67;4.80;;;17.50;99.90;;;;;;5029991;28;20494;-74
2023/09/13 09:03:56;;;;;;;9.53;4.97;;;17.50;99.90;;;;;;5035026;28;20526;-74
2023/09/13 09:06:25;;;;;;;7.70;3.63;;;17.90;99.90;;;;;;5041777;28;20469;-74
2023/09/13 09:08:54;;;;;;;10.30;2.87;;;18.20;99.90;;;;;;5036884;28;20557;-74
2023/09/13 09:11:23;;;;;;;8.70;3.27;;;18.40;99.90;;;;;;5025277;28;20439;-75
2023/09/13 09:13:55;;;;;;;6.87;2.60;;;18.60;99.90;;;;;;5028803;28;20453;-71
2023/09/13 09:16:27;;;;;;;8.70;3.37;;;18.60;99.90;;;;;;5035144;28;20577;-74
2023/09/13 09:18:55;;;;;;;13.37;2.80;;;18.70;99.90;;;;;;5030429;28;20463;-70
2023/09/13 09:21:23;;;;;;;5.77;2.70;;;18.70;99.90;;;;;;5037651;28;20442;-76
2023/09/13 09:23:50;;;;;;;5.10;2.63;;;18.80;99.90;;;;;;5039177;28;20443;-74
2023/09/13 09:26:17;;;;;;;7.07;3.17;;;18.80;99.90;;;;;;5033353;28;20466;-72
2023/09/13 09:28:46;;;;;;;4.27;2.07;;;18.90;99.90;;;;;;5034480;28;20525;-76
2023/09/13 09:31:14;;;;;;;7.03;2.67;;;18.80;99.90;;;;;;5034325;28;20443;-71
2023/09/13 09:33:42;;;;;;;7.43;2.93;;;18.80;99.90;;;;;;5033145;28;20909;-72
2023/09/13 09:36:10;;;;;;;5.07;2.33;;;18.80;99.90;;;;;;5041137;28;20578;-71
2023/09/13 09:38:37;;;;;;;10.33;3.60;;;18.80;99.90;;;;;;5031608;28;20528;-76
2023/09/13 09:41:06;;;;;;;3.27;1.50;;;18.80;99.90;;;;;;5031537;28;20942;-73
2023/09/13 09:43:34;;;;;;;8.90;2.83;;;18.70;99.90;;;;;;5040755;28;20437;-72
2023/09/13 09:46:01;;;;;;;9.30;3.10;;;18.80;99.90;;;;;;5033047;28;21010;-73
2023/09/13 09:48:28;;;;;;;5.13;2.27;;;18.80;99.90;;;;;;5035690;28;20450;-72
2023/09/13 09:50:57;;;;;;;7.27;1.90;;;18.90;99.90;;;;;;5033155;28;20491;-73
2023/09/13 09:53:25;;;;;;;8.30;2.77;;;19.00;99.90;;;;;;5036055;28;20887;-74
2023/09/13 09:55:53;;;;;;;7.03;1.90;;;18.80;99.90;;;;;;5037264;28;20482;-74
2023/09/13 09:58:22;;;;;;;9.30;3.50;;;18.90;99.90;;;;;;5029602;28;20517;-73
2023/09/13 10:00:51;;;;;;;9.17;2.90;;;18.90;99.90;;;;;;5029346;28;20513;-74
2023/09/13 10:03:19;;;;;;;4.77;2.40;;;18.80;99.90;;;;;;5021846;28;20479;-71
2023/09/13 10:05:53;;;;;;;4.20;2.13;;;18.80;99.90;;;;;;5020706;28;20468;-73
2023/09/13 10:08:37;;;;;;;8.63;2.33;;;18.70;99.90;;;;;;5031170;28;20438;-73
2023/09/13 10:11:04;;;;;;;5.23;2.57;;;18.70;99.90;;;;;;5024695;28;20917;-73
2023/09/13 10:13:31;;;;;;;7.57;2.83;;;18.70;99.90;;;;;;5029053;28;20523;-73
2023/09/13 10:15:59;;;;;;;9.00;2.73;;;18.70;99.90;;;;;;5028566;28;20486;-73
2023/09/13 10:18:27;;;;;;;3.87;2.30;;;18.70;99.90;;;;;;5024774;28;20827;-73
2023/09/13 10:20:57;;;;;;;6.70;2.07;;;18.70;99.90;;;;;;5031351;28;20917;-72
2023/09/13 10:23:30;;;;;;;6.17;2.33;;;18.70;99.90;;;;;;5028641;28;20870;-73
2023/09/13 10:26:02;;;;;;;7.30;2.20;;;18.70;99.90;;;;;;5031121;28;20541;-73
2023/09/13 10:28:35;;;;;;;7.27;1.87;;;18.60;99.90;;;;;;5023667;28;20925;-72
2023/09/13 10:31:03;;;;;;;4.83;1.90;;;18.60;99.90;;;;;;5020654;28;20471;-75
2023/09/13 10:33:33;;;;;;;7.47;1.87;;;18.70;99.90;;;;;;5032224;28;20442;-73
2023/09/13 10:36:02;;;;;;;5.67;2.20;;;18.80;99.90;;;;;;5023864;28;20977;-73
2023/09/13 10:38:38;;;;;;;4.70;2.30;;;18.90;99.90;;;;;;5019595;28;20448;-73
2023/09/13 10:41:08;;;;;;;4.90;1.83;;;18.90;99.90;;;;;;5028431;28;20522;-72
2023/09/13 10:43:37;;;;;;;5.87;2.00;;;19.00;99.90;;;;;;5031879;28;20447;-72
2023/09/13 10:46:05;;;;;;;5.17;1.60;;;19.10;99.90;;;;;;5031383;28;20549;-74
2023/09/13 10:48:32;;;;;;;4.90;2.10;;;19.10;99.90;;;;;;5031095;28;20501;-76
2023/09/13 10:51:02;;;;;;;5.20;1.77;;;19.10;99.90;;;;;;5035479;28;20530;-74
2023/09/13 10:53:30;;;;;;;5.90;1.83;;;19.20;99.90;;;;;;5026434;28;20846;-74
2023/09/13 10:55:58;;;;;;;3.80;1.53;;;19.10;99.90;;;;;;5034505;28;20490;-73
2023/09/13 10:58:26;;;;;;;5.13;2.00;;;19.20;99.90;;;;;;5033815;28;20530;-73
2023/09/13 11:00:54;;;;;;;4.37;1.77;;;19.30;99.90;;;;;;5035337;28;20514;-74
2023/09/13 11:03:22;;;;;;;5.83;2.33;;;19.40;99.90;;;;;;5032500;28;20491;-75
2023/09/13 11:05:53;;;;;;;7.50;2.27;;;19.50;99.90;;;;;;5034653;28;20541;-74
2023/09/13 11:08:29;;;;;;;5.27;2.10;;;19.60;99.90;;;;;;5026321;28;21037;-72
2023/09/13 11:11:08;;;;;;;8.30;2.80;;;19.50;99.90;;;;;;5033520;28;20438;-72
2023/09/13 11:13:35;;;;;;;4.07;2.40;;;19.30;99.90;;;;;;5028208;28;20538;-71
2023/09/13 11:16:14;;;;;;;3.53;2.50;;;18.90;99.90;;;;;;5041001;28;20572;-72
2023/09/13 11:18:47;;;;;;;5.73;2.87;;;18.60;99.90;;;;;;5030237;28;20492;-73
2023/09/13 11:21:21;;;;;;;6.03;2.10;;;18.30;99.90;;;;;;5035282;28;20446;-71
2023/09/13 11:23:52;;;;;;;7.97;3.37;;;18.20;99.90;;;;;;5032363;28;20469;-72
2023/09/13 11:26:44;;;;;;;3.93;2.67;;;18.10;99.90;;;;;;5034174;28;20463;-73
2023/09/13 11:29:24;;;;;;;4.87;2.77;;;18.00;99.90;;;;;;5033209;28;20458;-70
2023/09/13 11:32:01;;;;;;;5.13;2.63;;;18.00;99.90;;;;;;5029267;28;20828;-71
2023/09/13 11:34:28;;;;;;;6.90;2.03;;;18.10;99.90;;;;;;5033561;28;20445;-73
2023/09/13 11:36:58;;;;;;;5.10;3.37;;;18.20;99.90;;;;;;5034584;28;20485;-72
2023/09/13 11:39:25;;;;;;;3.87;2.07;;;18.30;99.90;;;;;;5034060;28;20453;-73
2023/09/13 11:41:55;;;;;;;6.07;3.00;;;18.30;99.90;;;;;;5034703;28;20493;-73
2023/09/13 11:44:22;;;;;;;4.30;2.47;;;18.50;99.90;;;;;;5033036;28;20455;-73
2023/09/13 11:46:50;;;;;;;5.10;2.40;;;18.60;99.90;;;;;;5032436;28;20529;-75
2023/09/13 11:49:20;;;;;;;5.00;2.53;;;18.70;99.90;;;;;;5031113;28;20525;-73
2023/09/13 11:51:52;;;;;;;4.30;2.57;;;18.80;99.90;;;;;;5033281;28;20526;-70
2023/09/13 11:54:21;;;;;;;5.60;2.40;;;19.00;99.90;;;;;;5034072;28;20455;-71
2023/09/13 11:56:49;;;;;;;5.50;2.33;;;19.20;99.90;;;;;;5034135;28;20566;-72
2023/09/13 11:59:30;;;;;;;4.20;2.70;;;19.30;99.90;;;;;;5042151;28;20458;-71
2023/09/13 12:01:58;;;;;;;2.90;1.60;;;19.40;99.90;;;;;;5047775;28;20471;-73
2023/09/13 12:04:26;;;;;;;3.60;1.50;;;19.40;99.90;;;;;;5037074;28;20450;-71
2023/09/13 12:06:55;;;;;;;6.00;2.03;;;19.50;99.90;;;;;;5034612;28;20533;-75
2023/09/13 12:09:23;;;;;;;3.17;2.10;;;19.70;99.90;;;;;;5033140;28;20440;-71
2023/09/13 12:11:53;;;;;;;3.83;2.10;;;19.90;99.90;;;;;;5033970;28;20538;-73
2023/09/13 12:14:23;;;;;;;6.70;2.43;;;20.10;99.90;;;;;;5036768;28;20470;-72
2023/09/13 12:16:51;;;;;;;4.90;1.77;;;20.20;99.90;;;;;;5037815;28;20572;-74
2023/09/13 12:19:19;;;;;;;4.10;2.47;;;20.30;99.90;;;;;;5022817;28;20469;-73
2023/09/13 12:21:47;;;;;;;5.00;2.00;;;20.50;99.90;;;;;;5027685;28;20531;-71
2023/09/13 12:24:19;;;;;;;5.93;3.07;;;20.50;99.90;;;;;;5029526;28;20437;-74
2023/09/13 12:26:46;;;;;;;4.70;2.67;;;20.30;99.90;;;;;;5026797;28;20523;-73
2023/09/13 12:29:15;;;;;;;3.90;2.60;;;20.40;99.90;;;;;;5031688;28;20450;-73
2023/09/13 12:31:43;;;;;;;3.50;1.90;;;20.40;99.90;;;;;;5024582;28;20500;-72
2023/09/13 12:34:11;;;;;;;3.63;2.00;;;20.50;99.90;;;;;;5033408;28;20767;-73
2023/09/13 12:36:38;;;;;;;3.63;2.13;;;20.60;99.90;;;;;;5027971;28;20599;-70
2023/09/13 12:39:14;;;;;;;3.30;2.47;;;20.70;99.90;;;;;;5020965;28;20525;-70
2023/09/13 12:41:41;;;;;;;4.97;2.60;;;20.90;99.20;;;;;;5023993;28;20464;-73
2023/09/13 12:44:10;;;;;;;4.47;3.00;;;20.90;98.10;;;;;;5020028;28;20455;-74
2023/09/13 12:46:40;;;;;;;3.83;2.20;;;21.00;98.50;;;;;;5031347;28;20548;-73